UKV884 EGPH-EBBR
Flight info
| Callsign | UKV884 |
|---|---|
| Flight time | 1h 10m |
| Altitude | 25000 |
| Route | TLA Y96 OTBUN/N0449F350 DCT NATEB DCT GODOS DCT ALFEN DCT ORCAV Z310 WOODY |
| Aircraft | A320/M-SDE3FGHIRWY/LB1 |
Departure
| Time | 2026-04-26 18:00 |
|---|---|
| Airport | Edinburgh Airport (EGPH) |
Arrival
| Time | 2026-04-26 19:10 |
|---|---|
| Airport | Brussels Airport (EBBR) |
| Time | Latitude | Longitude | Altitude | Speed | Heading |
|---|---|---|---|---|---|
| 2026-04-26 17:37 | 55.94658 | -3.36613 | 107 ft | 0 kts | 89° |
| 2026-04-26 17:50 | 55.94658 | -3.36617 | 106 ft | 2 kts | 89° |
| 2026-04-26 17:50 | 55.94658 | -3.36662 | 106 ft | 4 kts | 84° |
| 2026-04-26 17:51 | 55.94651 | -3.36707 | 105 ft | 4 kts | 56° |
| 2026-04-26 17:51 | 55.94633 | -3.36733 | 105 ft | 3 kts | 2° |
| 2026-04-26 17:51 | 55.94625 | -3.36734 | 105 ft | 0 kts | 359° |
| 2026-04-26 17:52 | 55.94625 | -3.36733 | 105 ft | 0 kts | 359° |
| 2026-04-26 17:54 | 55.94633 | -3.36734 | 106 ft | 5 kts | 359° |
| 2026-04-26 17:54 | 55.94696 | -3.36736 | 106 ft | 11 kts | 359° |
| 2026-04-26 17:54 | 55.94780 | -3.36770 | 105 ft | 14 kts | 345° |
| 2026-04-26 17:54 | 55.94884 | -3.36791 | 105 ft | 16 kts | 340° |
| 2026-04-26 17:55 | 55.94905 | -3.36956 | 104 ft | 18 kts | 239° |
| 2026-04-26 17:55 | 55.94840 | -3.37150 | 105 ft | 19 kts | 239° |
| 2026-04-26 17:55 | 55.94769 | -3.37358 | 108 ft | 19 kts | 239° |
| 2026-04-26 17:55 | 55.94700 | -3.37562 | 110 ft | 19 kts | 238° |
| 2026-04-26 17:56 | 55.94630 | -3.37767 | 113 ft | 20 kts | 239° |
| 2026-04-26 17:56 | 55.94465 | -3.38251 | 111 ft | 25 kts | 239° |
| 2026-04-26 17:57 | 55.94321 | -3.38677 | 116 ft | 11 kts | 239° |
| 2026-04-26 17:57 | 55.94282 | -3.38810 | 119 ft | 12 kts | 260° |
| 2026-04-26 17:57 | 55.94322 | -3.38904 | 118 ft | 0 kts | 329° |
| 2026-04-26 17:58 | 55.94406 | -3.38968 | 114 ft | 10 kts | 29° |
| 2026-04-26 17:59 | 55.94485 | -3.38762 | 114 ft | 24 kts | 58° |
| 2026-04-26 17:59 | 55.94700 | -3.38129 | 115 ft | 92 kts | 59° |
| 2026-04-26 17:59 | 55.95130 | -3.36865 | 109 ft | 143 kts | 59° |
| 2026-04-26 17:59 | 55.95666 | -3.35259 | 556 ft | 152 kts | 59° |
| 2026-04-26 18:00 | 55.96309 | -3.33756 | 1162 ft | 154 kts | 41° |
| 2026-04-26 18:00 | 55.97159 | -3.32415 | 1519 ft | 174 kts | 39° |
| 2026-04-26 18:00 | 55.98117 | -3.30902 | 1845 ft | 196 kts | 40° |
| 2026-04-26 18:00 | 55.99192 | -3.29179 | 2158 ft | 217 kts | 40° |
| 2026-04-26 18:01 | 56.00358 | -3.27299 | 2474 ft | 237 kts | 40° |
| 2026-04-26 18:01 | 56.01617 | -3.25275 | 3017 ft | 247 kts | 40° |
| 2026-04-26 18:01 | 56.02908 | -3.23199 | 3694 ft | 255 kts | 41° |
| 2026-04-26 18:01 | 56.04264 | -3.20951 | 4224 ft | 272 kts | 47° |
| 2026-04-26 18:02 | 56.05124 | -3.17937 | 5004 ft | 278 kts | 82° |
| 2026-04-26 18:02 | 56.05143 | -3.15646 | 5552 ft | 279 kts | 97° |
| 2026-04-26 18:02 | 56.04635 | -3.11141 | 6664 ft | 281 kts | 116° |
| 2026-04-26 18:02 | 56.03522 | -3.08289 | 7432 ft | 281 kts | 140° |
| 2026-04-26 18:03 | 56.02015 | -3.06040 | 8229 ft | 283 kts | 144° |
| 2026-04-26 18:03 | 56.00468 | -3.03826 | 9028 ft | 286 kts | 145° |
| 2026-04-26 18:03 | 55.98897 | -3.01600 | 9819 ft | 290 kts | 145° |
| 2026-04-26 18:03 | 55.97305 | -2.99348 | 10514 ft | 296 kts | 145° |
| 2026-04-26 18:04 | 55.95627 | -2.96979 | 10723 ft | 319 kts | 145° |
| 2026-04-26 18:04 | 55.93819 | -2.94425 | 10860 ft | 342 kts | 144° |
| 2026-04-26 18:04 | 55.91901 | -2.91703 | 11077 ft | 360 kts | 144° |
| 2026-04-26 18:05 | 55.87917 | -2.86012 | 12173 ft | 372 kts | 144° |
| 2026-04-26 18:05 | 55.85887 | -2.83113 | 12782 ft | 376 kts | 144° |
| 2026-04-26 18:05 | 55.83865 | -2.80236 | 13390 ft | 380 kts | 144° |
| 2026-04-26 18:05 | 55.81786 | -2.77291 | 14008 ft | 384 kts | 144° |
| 2026-04-26 18:06 | 55.79686 | -2.74320 | 14566 ft | 387 kts | 144° |
| 2026-04-26 18:06 | 55.77565 | -2.71322 | 15080 ft | 391 kts | 144° |
| 2026-04-26 18:06 | 55.75424 | -2.68303 | 15582 ft | 395 kts | 144° |
| 2026-04-26 18:06 | 55.73257 | -2.65256 | 16097 ft | 398 kts | 144° |
| 2026-04-26 18:07 | 55.71073 | -2.62193 | 16620 ft | 402 kts | 144° |
| 2026-04-26 18:07 | 55.68873 | -2.59113 | 17126 ft | 405 kts | 144° |
| 2026-04-26 18:07 | 55.66654 | -2.56008 | 17652 ft | 409 kts | 144° |
| 2026-04-26 18:07 | 55.65170 | -2.53931 | 17992 ft | 411 kts | 144° |
| 2026-04-26 18:08 | 55.62144 | -2.49704 | 18661 ft | 416 kts | 144° |
| 2026-04-26 18:08 | 55.59863 | -2.46516 | 19126 ft | 419 kts | 144° |
| 2026-04-26 18:08 | 55.57568 | -2.43316 | 19611 ft | 422 kts | 144° |
| 2026-04-26 18:08 | 55.55255 | -2.40096 | 20092 ft | 425 kts | 144° |
| 2026-04-26 18:09 | 55.52949 | -2.36893 | 20565 ft | 428 kts | 144° |
| 2026-04-26 18:09 | 55.50602 | -2.33635 | 21028 ft | 430 kts | 144° |
| 2026-04-26 18:09 | 55.48237 | -2.30357 | 21446 ft | 433 kts | 144° |
| 2026-04-26 18:09 | 55.45863 | -2.27072 | 21893 ft | 435 kts | 144° |
| 2026-04-26 18:10 | 55.43469 | -2.23770 | 22324 ft | 438 kts | 144° |
| 2026-04-26 18:10 | 55.41055 | -2.20448 | 22741 ft | 440 kts | 144° |
| 2026-04-26 18:10 | 55.38662 | -2.17156 | 23164 ft | 443 kts | 144° |
| 2026-04-26 18:10 | 55.36229 | -2.13815 | 23557 ft | 445 kts | 144° |
| 2026-04-26 18:11 | 55.33781 | -2.10457 | 23926 ft | 448 kts | 145° |
| 2026-04-26 18:11 | 55.31320 | -2.07086 | 24253 ft | 450 kts | 145° |
| 2026-04-26 18:11 | 55.28845 | -2.03699 | 24587 ft | 452 kts | 145° |
| 2026-04-26 18:11 | 55.26358 | -2.00307 | 24922 ft | 454 kts | 146° |
| 2026-04-26 18:12 | 55.23857 | -1.96907 | 25255 ft | 455 kts | 145° |
| 2026-04-26 18:12 | 55.21356 | -1.93511 | 25638 ft | 456 kts | 146° |
| 2026-04-26 18:12 | 55.18836 | -1.90093 | 25993 ft | 457 kts | 146° |
| 2026-04-26 18:12 | 55.16314 | -1.86680 | 26343 ft | 459 kts | 146° |
| 2026-04-26 18:13 | 55.13775 | -1.83245 | 26669 ft | 461 kts | 146° |
| 2026-04-26 18:13 | 55.11244 | -1.79818 | 27093 ft | 461 kts | 146° |
| 2026-04-26 18:13 | 55.08711 | -1.76391 | 27264 ft | 461 kts | 146° |
| 2026-04-26 18:13 | 55.07027 | -1.74095 | 27272 ft | 466 kts | 144° |
| 2026-04-26 18:14 | 55.03927 | -1.68712 | 27275 ft | 475 kts | 133° |
| 2026-04-26 18:14 | 55.02017 | -1.63982 | 27271 ft | 480 kts | 124° |
| 2026-04-26 18:14 | 55.00392 | -1.58851 | 27349 ft | 487 kts | 121° |
| 2026-04-26 18:14 | 54.98759 | -1.53654 | 27614 ft | 490 kts | 121° |
| 2026-04-26 18:15 | 54.97118 | -1.48457 | 28011 ft | 489 kts | 121° |
| 2026-04-26 18:15 | 54.95471 | -1.43258 | 28427 ft | 489 kts | 122° |
| 2026-04-26 18:15 | 54.93828 | -1.38085 | 28847 ft | 489 kts | 122° |
| 2026-04-26 18:15 | 54.92182 | -1.32924 | 29260 ft | 489 kts | 122° |
| 2026-04-26 18:16 | 54.90532 | -1.27754 | 29683 ft | 488 kts | 122° |
| 2026-04-26 18:16 | 54.87240 | -1.17434 | 30493 ft | 488 kts | 122° |
| 2026-04-26 18:16 | 54.85587 | -1.12279 | 30846 ft | 488 kts | 123° |
| 2026-04-26 18:17 | 54.83930 | -1.07137 | 31199 ft | 488 kts | 122° |
| 2026-04-26 18:17 | 54.82288 | -1.02053 | 31507 ft | 489 kts | 123° |
| 2026-04-26 18:17 | 54.80620 | -0.96892 | 31843 ft | 490 kts | 123° |
| 2026-04-26 18:17 | 54.78956 | -0.91740 | 32195 ft | 490 kts | 123° |
| 2026-04-26 18:18 | 54.77290 | -0.86589 | 32550 ft | 490 kts | 123° |
| 2026-04-26 18:18 | 54.75616 | -0.81430 | 32919 ft | 490 kts | 123° |
| 2026-04-26 18:18 | 54.73944 | -0.76289 | 33273 ft | 489 kts | 123° |
| 2026-04-26 18:18 | 54.72270 | -0.71151 | 33689 ft | 488 kts | 123° |
| 2026-04-26 18:19 | 54.70600 | -0.66052 | 34080 ft | 487 kts | 124° |
| 2026-04-26 18:19 | 54.68925 | -0.60958 | 34445 ft | 487 kts | 124° |
| 2026-04-26 18:19 | 54.67248 | -0.55871 | 34767 ft | 486 kts | 124° |
| 2026-04-26 18:19 | 54.65578 | -0.50801 | 35112 ft | 486 kts | 123° |
| 2026-04-26 18:20 | 54.63905 | -0.45725 | 35269 ft | 486 kts | 123° |
| 2026-04-26 18:20 | 54.62232 | -0.40657 | 35293 ft | 485 kts | 123° |
| 2026-04-26 18:20 | 54.59455 | -0.32251 | 35290 ft | 485 kts | 123° |
| 2026-04-26 18:21 | 54.55538 | -0.20476 | 35290 ft | 485 kts | 124° |
| 2026-04-26 18:21 | 54.52172 | -0.10409 | 35290 ft | 484 kts | 124° |
| 2026-04-26 18:22 | 54.48812 | -0.00416 | 35276 ft | 484 kts | 123° |
| 2026-04-26 18:22 | 54.45432 | 0.09615 | 35284 ft | 485 kts | 123° |
| 2026-04-26 18:23 | 54.42042 | 0.19641 | 35290 ft | 485 kts | 123° |
| 2026-04-26 18:23 | 54.38642 | 0.29644 | 35305 ft | 485 kts | 124° |
| 2026-04-26 18:24 | 54.35232 | 0.39634 | 35308 ft | 485 kts | 124° |
| 2026-04-26 18:24 | 54.31814 | 0.49604 | 35313 ft | 485 kts | 124° |
| 2026-04-26 18:25 | 54.28412 | 0.59511 | 35297 ft | 486 kts | 123° |
| 2026-04-26 18:25 | 54.24970 | 0.69477 | 35302 ft | 486 kts | 124° |
| 2026-04-26 18:26 | 54.21508 | 0.79439 | 35304 ft | 486 kts | 124° |
| 2026-04-26 18:26 | 54.18052 | 0.89363 | 35313 ft | 486 kts | 123° |
| 2026-04-26 18:27 | 54.14601 | 0.99265 | 35317 ft | 485 kts | 124° |
| 2026-04-26 18:27 | 54.11134 | 1.09138 | 35314 ft | 485 kts | 123° |
| 2026-04-26 18:28 | 54.07665 | 1.18946 | 35317 ft | 486 kts | 124° |
| 2026-04-26 18:28 | 54.04173 | 1.28817 | 35325 ft | 487 kts | 124° |
| 2026-04-26 18:29 | 54.00671 | 1.38691 | 35321 ft | 487 kts | 124° |
| 2026-04-26 18:29 | 53.97167 | 1.48539 | 35323 ft | 486 kts | 124° |
| 2026-04-26 18:30 | 53.93653 | 1.58354 | 35338 ft | 486 kts | 124° |
| 2026-04-26 18:30 | 53.90127 | 1.68152 | 35335 ft | 486 kts | 123° |
| 2026-04-26 18:31 | 53.86593 | 1.77945 | 35335 ft | 487 kts | 123° |
| 2026-04-26 18:31 | 53.83053 | 1.87718 | 35337 ft | 487 kts | 124° |
| 2026-04-26 18:32 | 53.79521 | 1.97421 | 35343 ft | 487 kts | 124° |
| 2026-04-26 18:32 | 53.75959 | 2.07165 | 35341 ft | 487 kts | 124° |
| 2026-04-26 18:33 | 53.72397 | 2.16900 | 35337 ft | 487 kts | 123° |
| 2026-04-26 18:33 | 53.68823 | 2.26612 | 35331 ft | 487 kts | 123° |
| 2026-04-26 18:34 | 53.65242 | 2.36305 | 35345 ft | 486 kts | 123° |
| 2026-04-26 18:34 | 53.61650 | 2.45990 | 35351 ft | 486 kts | 124° |
| 2026-04-26 18:35 | 53.58054 | 2.55650 | 35353 ft | 486 kts | 124° |
| 2026-04-26 18:35 | 53.54453 | 2.65292 | 35350 ft | 486 kts | 123° |
| 2026-04-26 18:36 | 53.50843 | 2.74918 | 35342 ft | 487 kts | 123° |
| 2026-04-26 18:36 | 53.47215 | 2.84543 | 35342 ft | 488 kts | 123° |
| 2026-04-26 18:37 | 53.43600 | 2.94114 | 35344 ft | 488 kts | 123° |
| 2026-04-26 18:37 | 53.39950 | 3.03730 | 35345 ft | 488 kts | 124° |
| 2026-04-26 18:38 | 53.36290 | 3.13318 | 35344 ft | 488 kts | 123° |
| 2026-04-26 18:38 | 53.32629 | 3.22900 | 35333 ft | 489 kts | 123° |
| 2026-04-26 18:39 | 53.28951 | 3.32473 | 35336 ft | 490 kts | 124° |
| 2026-04-26 18:39 | 53.25089 | 3.41744 | 35337 ft | 488 kts | 133° |
| 2026-04-26 18:40 | 53.20068 | 3.49280 | 35329 ft | 485 kts | 144° |
| 2026-04-26 18:40 | 53.14752 | 3.56193 | 35348 ft | 484 kts | 144° |
| 2026-04-26 18:41 | 53.10286 | 3.61987 | 35349 ft | 485 kts | 144° |
| 2026-04-26 18:41 | 53.04992 | 3.68851 | 35342 ft | 485 kts | 144° |
| 2026-04-26 18:42 | 52.99656 | 3.75750 | 35340 ft | 486 kts | 144° |
| 2026-04-26 18:42 | 52.94300 | 3.82623 | 35321 ft | 486 kts | 144° |
| 2026-04-26 18:43 | 52.88987 | 3.89419 | 35337 ft | 485 kts | 144° |
| 2026-04-26 18:43 | 52.83639 | 3.96258 | 35344 ft | 485 kts | 144° |
| 2026-04-26 18:44 | 52.78297 | 4.03077 | 35356 ft | 485 kts | 144° |
| 2026-04-26 18:44 | 52.72946 | 4.09874 | 35340 ft | 486 kts | 144° |
| 2026-04-26 18:45 | 52.67576 | 4.16656 | 35321 ft | 486 kts | 144° |
| 2026-04-26 18:45 | 52.62216 | 4.23429 | 35330 ft | 486 kts | 144° |
| 2026-04-26 18:46 | 52.56889 | 4.30142 | 35333 ft | 485 kts | 144° |
| 2026-04-26 18:46 | 52.51588 | 4.36796 | 35335 ft | 485 kts | 144° |
| 2026-04-26 18:47 | 52.46220 | 4.43504 | 35331 ft | 485 kts | 144° |
| 2026-04-26 18:47 | 52.40840 | 4.50211 | 35328 ft | 485 kts | 144° |
| 2026-04-26 18:48 | 52.38151 | 4.53552 | 34847 ft | 487 kts | 144° |
| 2026-04-26 18:48 | 52.35411 | 4.56946 | 33559 ft | 501 kts | 144° |
| 2026-04-26 18:48 | 52.32632 | 4.60380 | 32782 ft | 500 kts | 145° |
| 2026-04-26 18:48 | 52.29828 | 4.63846 | 31699 ft | 507 kts | 145° |
| 2026-04-26 18:49 | 52.27032 | 4.67304 | 30810 ft | 499 kts | 145° |
| 2026-04-26 18:49 | 52.24260 | 4.70731 | 29266 ft | 501 kts | 145° |
| 2026-04-26 18:49 | 52.21475 | 4.74169 | 28257 ft | 488 kts | 145° |
| 2026-04-26 18:49 | 52.18786 | 4.77475 | 27120 ft | 483 kts | 145° |
| 2026-04-26 18:50 | 52.16063 | 4.80803 | 26617 ft | 491 kts | 145° |
| 2026-04-26 18:50 | 52.13323 | 4.84142 | 26385 ft | 493 kts | 145° |
| 2026-04-26 18:50 | 52.10608 | 4.87444 | 26291 ft | 493 kts | 145° |
| 2026-04-26 18:50 | 52.07820 | 4.90831 | 26333 ft | 495 kts | 145° |
| 2026-04-26 18:51 | 52.05076 | 4.94152 | 26296 ft | 497 kts | 145° |
| 2026-04-26 18:51 | 52.02164 | 4.97079 | 25578 ft | 491 kts | 158° |
| 2026-04-26 18:51 | 51.98965 | 4.98775 | 25248 ft | 480 kts | 171° |
| 2026-04-26 18:51 | 51.95668 | 4.99292 | 25005 ft | 473 kts | 184° |
| 2026-04-26 18:52 | 51.92438 | 4.98591 | 24757 ft | 465 kts | 198° |
| 2026-04-26 18:52 | 51.89467 | 4.96693 | 24520 ft | 457 kts | 212° |
| 2026-04-26 18:52 | 51.86862 | 4.93792 | 24291 ft | 452 kts | 221° |
| 2026-04-26 18:52 | 51.84348 | 4.90627 | 24070 ft | 451 kts | 220° |
| 2026-04-26 18:53 | 51.81907 | 4.87560 | 23821 ft | 450 kts | 220° |
| 2026-04-26 18:53 | 51.79432 | 4.84464 | 23532 ft | 449 kts | 220° |
| 2026-04-26 18:53 | 51.76969 | 4.81400 | 23256 ft | 446 kts | 220° |
| 2026-04-26 18:53 | 51.74508 | 4.78353 | 22986 ft | 444 kts | 220° |
| 2026-04-26 18:54 | 51.72057 | 4.75325 | 22710 ft | 443 kts | 220° |
| 2026-04-26 18:54 | 51.69617 | 4.72312 | 22434 ft | 441 kts | 220° |
| 2026-04-26 18:54 | 51.67184 | 4.69307 | 22178 ft | 439 kts | 220° |
| 2026-04-26 18:54 | 51.64762 | 4.66316 | 21909 ft | 438 kts | 220° |
| 2026-04-26 18:55 | 51.62358 | 4.63349 | 21328 ft | 432 kts | 219° |
| 2026-04-26 18:55 | 51.59981 | 4.60421 | 20627 ft | 427 kts | 219° |
| 2026-04-26 18:55 | 51.57635 | 4.57534 | 19943 ft | 422 kts | 219° |
| 2026-04-26 18:55 | 51.55343 | 4.54715 | 19265 ft | 418 kts | 219° |
| 2026-04-26 18:56 | 51.53042 | 4.51890 | 18620 ft | 415 kts | 219° |
| 2026-04-26 18:56 | 51.50752 | 4.49082 | 17919 ft | 411 kts | 219° |
| 2026-04-26 18:56 | 51.48488 | 4.46309 | 17315 ft | 406 kts | 219° |
| 2026-04-26 18:56 | 51.46258 | 4.43584 | 16729 ft | 401 kts | 219° |
| 2026-04-26 18:57 | 51.44057 | 4.40902 | 16166 ft | 396 kts | 219° |
| 2026-04-26 18:57 | 51.42578 | 4.39101 | 15784 ft | 392 kts | 219° |
| 2026-04-26 18:57 | 51.39596 | 4.35918 | 15024 ft | 389 kts | 209° |
| 2026-04-26 18:57 | 51.37139 | 4.34019 | 14308 ft | 393 kts | 207° |
| 2026-04-26 18:58 | 51.34672 | 4.32145 | 13569 ft | 391 kts | 207° |
| 2026-04-26 18:58 | 51.32202 | 4.30364 | 12890 ft | 389 kts | 200° |
| 2026-04-26 18:58 | 51.29548 | 4.29628 | 12220 ft | 388 kts | 181° |
| 2026-04-26 18:58 | 51.26915 | 4.30380 | 11551 ft | 387 kts | 160° |
| 2026-04-26 18:59 | 51.24628 | 4.32559 | 11254 ft | 376 kts | 139° |
| 2026-04-26 18:59 | 51.22975 | 4.35644 | 11117 ft | 359 kts | 121° |
| 2026-04-26 18:59 | 51.21747 | 4.39026 | 10996 ft | 344 kts | 126° |
| 2026-04-26 18:59 | 51.20003 | 4.41467 | 10875 ft | 328 kts | 155° |
| 2026-04-26 19:00 | 51.17849 | 4.42291 | 10750 ft | 313 kts | 181° |
| 2026-04-26 19:00 | 51.15746 | 4.41835 | 10620 ft | 300 kts | 199° |
| 2026-04-26 19:00 | 51.13881 | 4.40460 | 10380 ft | 292 kts | 216° |
| 2026-04-26 19:00 | 51.12290 | 4.38484 | 10047 ft | 290 kts | 220° |
| 2026-04-26 19:01 | 51.10707 | 4.36458 | 9613 ft | 292 kts | 220° |
| 2026-04-26 19:01 | 51.09138 | 4.34447 | 9317 ft | 288 kts | 220° |
| 2026-04-26 19:01 | 51.07573 | 4.32437 | 8967 ft | 287 kts | 220° |
| 2026-04-26 19:01 | 51.06020 | 4.30444 | 8618 ft | 286 kts | 220° |
| 2026-04-26 19:02 | 51.04479 | 4.28470 | 8308 ft | 283 kts | 220° |
| 2026-04-26 19:02 | 51.02968 | 4.26534 | 8007 ft | 281 kts | 220° |
| 2026-04-26 19:02 | 51.01457 | 4.24595 | 7728 ft | 278 kts | 220° |
| 2026-04-26 19:02 | 51.00440 | 4.23292 | 7540 ft | 277 kts | 220° |
| 2026-04-26 19:03 | 50.98458 | 4.20756 | 7166 ft | 276 kts | 220° |
| 2026-04-26 19:03 | 50.96965 | 4.18848 | 6888 ft | 275 kts | 220° |
| 2026-04-26 19:03 | 50.95483 | 4.16953 | 6610 ft | 274 kts | 220° |
| 2026-04-26 19:03 | 50.93998 | 4.15055 | 6331 ft | 273 kts | 219° |
| 2026-04-26 19:04 | 50.92516 | 4.13167 | 6043 ft | 273 kts | 219° |
| 2026-04-26 19:04 | 50.91036 | 4.11282 | 5767 ft | 273 kts | 219° |
| 2026-04-26 19:04 | 50.89462 | 4.09629 | 5490 ft | 273 kts | 204° |
| 2026-04-26 19:04 | 50.87638 | 4.08878 | 5232 ft | 271 kts | 184° |
| 2026-04-26 19:05 | 50.84048 | 4.10255 | 4647 ft | 267 kts | 154° |
| 2026-04-26 19:05 | 50.82414 | 4.11623 | 4359 ft | 264 kts | 139° |
| 2026-04-26 19:05 | 50.81423 | 4.13965 | 4073 ft | 257 kts | 103° |
| 2026-04-26 19:06 | 50.81509 | 4.16713 | 3825 ft | 251 kts | 69° |
| 2026-04-26 19:06 | 50.82178 | 4.19141 | 3583 ft | 247 kts | 65° |
| 2026-04-26 19:06 | 50.82907 | 4.21622 | 3320 ft | 244 kts | 64° |
| 2026-04-26 19:06 | 50.83619 | 4.24036 | 3094 ft | 240 kts | 65° |
| 2026-04-26 19:07 | 50.84308 | 4.26386 | 2999 ft | 229 kts | 65° |
| 2026-04-26 19:07 | 50.84959 | 4.28602 | 3004 ft | 215 kts | 65° |
| 2026-04-26 19:07 | 50.85585 | 4.30733 | 3007 ft | 213 kts | 65° |
| 2026-04-26 19:07 | 50.86209 | 4.32858 | 2849 ft | 213 kts | 65° |
| 2026-04-26 19:08 | 50.86836 | 4.34989 | 2197 ft | 218 kts | 64° |
| 2026-04-26 19:08 | 50.87479 | 4.37182 | 1479 ft | 215 kts | 65° |
| 2026-04-26 19:08 | 50.88077 | 4.39323 | 1058 ft | 208 kts | 65° |
| 2026-04-26 19:08 | 50.88659 | 4.41357 | 742 ft | 197 kts | 64° |
| 2026-04-26 19:09 | 50.89220 | 4.43250 | 474 ft | 183 kts | 65° |
| 2026-04-26 19:09 | 50.89714 | 4.44951 | 286 ft | 156 kts | 65° |
| 2026-04-26 19:09 | 50.90136 | 4.46425 | 147 ft | 134 kts | 59° |
| 2026-04-26 19:09 | 50.90471 | 4.47557 | 137 ft | 94 kts | 66° |
| 2026-04-26 19:10 | 50.90646 | 4.48174 | 139 ft | 27 kts | 67° |
| 2026-04-26 19:10 | 50.90615 | 4.48415 | 139 ft | 22 kts | 117° |
| 2026-04-26 19:10 | 50.90605 | 4.48656 | 132 ft | 26 kts | 63° |
| 2026-04-26 19:10 | 50.90684 | 4.48932 | 125 ft | 27 kts | 67° |
| 2026-04-26 19:11 | 50.90684 | 4.49106 | 127 ft | 16 kts | 132° |
| 2026-04-26 19:11 | 50.90579 | 4.49191 | 125 ft | 18 kts | 157° |
| 2026-04-26 19:11 | 50.90469 | 4.49265 | 135 ft | 17 kts | 156° |
| 2026-04-26 19:11 | 50.90403 | 4.49312 | 135 ft | 7 kts | 155° |
| 2026-04-26 19:12 | 50.90358 | 4.49351 | 136 ft | 8 kts | 141° |
| 2026-04-26 19:12 | 50.90298 | 4.49402 | 138 ft | 13 kts | 175° |
| 2026-04-26 19:12 | 50.90190 | 4.49368 | 139 ft | 18 kts | 194° |
| 2026-04-26 19:12 | 50.90067 | 4.49319 | 142 ft | 18 kts | 194° |
| 2026-04-26 19:13 | 50.89971 | 4.49207 | 144 ft | 18 kts | 249° |
| 2026-04-26 19:13 | 50.89918 | 4.49017 | 146 ft | 20 kts | 245° |
| 2026-04-26 19:13 | 50.89876 | 4.48875 | 147 ft | 11 kts | 246° |
| 2026-04-26 19:13 | 50.89904 | 4.48805 | 147 ft | 8 kts | 336° |
| 2026-04-26 19:14 | 50.89951 | 4.48772 | 146 ft | 4 kts | 336° |
| 2026-04-26 19:14 | 50.89956 | 4.48768 | 146 ft | 0 kts | 336° |
| 2026-04-26 19:14 | 50.89963 | 4.48763 | 146 ft | 0 kts | 336° |